Terminal Aerodrome Forecast
Issued by NWS Greer, SC

Home | Current Version | Previous Version | Text Only | Print | Product List | Glossary On
Versions: 1 2 3 4 5 6 7 8 9 10 11 12 13 14 15 16 17 18 19 20
883
FTUS42 KGSP 060852 AAA
TAFGSP
TAF AMD
KGSP 060852Z 0609/0706 05012KT 3SM BR OVC005
     FM061500 05009KT 3SM RA BR OVC008
     FM061900 03005KT 5SM BR OVC010
     FM062100 33003KT 5SM BR BKN015
     FM070400 28003KT 3SM BR SCT250=

USA.gov is the U.S. government's official web portal to all federal, state and local government web resources and services.